Time;durP1;ratioP1;P1;durP2;ratioP2;P2;SDS_P1;SDS_P2;PMS_P1;PMS_P2;Temp;Humidity;BMP_temperature;BMP_pressure;BME280_temperature;BME280_humidity;BME280_pressure;Samples;Min_cycle;Max_cycle;Signal;HPM_P1;HPM_P2
2022/07/15 00:00:28;;;;;;;2.50;2.20;;;;;;;;;;4997460;28;20427;-51
2022/07/15 00:02:54;;;;;;;2.27;2.10;;;;;;;;;;5003020;28;20419;-52
2022/07/15 00:05:20;;;;;;;2.43;2.33;;;;;;;;;;5013488;28;20385;-50
2022/07/15 00:07:46;;;;;;;7.93;2.57;;;;;;;;;;5013912;28;20410;-49
2022/07/15 00:10:15;;;;;;;10.17;2.83;;;;;;;;;;5013953;28;20551;-50
2022/07/15 00:12:42;;;;;;;4.80;2.30;;;;;;;;;;5012731;28;20394;-51
2022/07/15 00:15:08;;;;;;;3.23;2.70;;;;;;;;;;5013873;28;20370;-51
2022/07/15 00:17:35;;;;;;;3.50;2.37;;;;;;;;;;5013342;28;20434;-51
2022/07/15 00:20:01;;;;;;;4.23;2.30;;;;;;;;;;5012905;28;20386;-52
2022/07/15 00:22:27;;;;;;;6.27;3.00;;;;;;;;;;5013085;28;20393;-50
2022/07/15 00:24:53;;;;;;;3.03;2.77;;;;;;;;;;5014059;28;20461;-50
2022/07/15 00:27:19;;;;;;;4.73;2.50;;;;;;;;;;5013507;28;20758;-50
2022/07/15 00:29:45;;;;;;;11.70;3.13;;;;;;;;;;5013606;28;20516;-50
2022/07/15 00:32:11;;;;;;;4.03;3.17;;;;;;;;;;5009174;28;20506;-50
2022/07/15 00:34:37;;;;;;;5.07;2.47;;;;;;;;;;5011759;28;20392;-50
2022/07/15 00:37:03;;;;;;;4.97;2.40;;;;;;;;;;5011526;28;20439;-50
2022/07/15 00:39:29;;;;;;;3.37;2.70;;;;;;;;;;5012764;28;20427;-50
2022/07/15 00:41:55;;;;;;;3.60;3.20;;;;;;;;;;5012213;28;20517;-52
2022/07/15 00:44:21;;;;;;;3.23;2.53;;;;;;;;;;5013753;28;20408;-51
2022/07/15 00:46:47;;;;;;;8.23;3.27;;;;;;;;;;5013472;28;20830;-52
2022/07/15 00:49:13;;;;;;;6.93;2.70;;;;;;;;;;5013718;28;20466;-51
2022/07/15 00:51:43;;;;;;;2.90;2.40;;;;;;;;;;5013124;28;21227;-52
2022/07/15 00:54:10;;;;;;;3.50;2.90;;;;;;;;;;5013404;28;20406;-51
2022/07/15 00:56:39;;;;;;;4.37;3.00;;;;;;;;;;5013085;28;20482;-50
2022/07/15 00:59:05;;;;;;;6.03;2.33;;;;;;;;;;5013381;28;20433;-50
2022/07/15 01:01:32;;;;;;;2.73;2.27;;;;;;;;;;5012258;28;20404;-51
2022/07/15 01:03:58;;;;;;;3.37;2.40;;;;;;;;;;5012881;28;20396;-52
2022/07/15 01:06:27;;;;;;;4.70;2.60;;;;;;;;;;5012778;28;20394;-52
2022/07/15 01:08:52;;;;;;;4.10;2.67;;;;;;;;;;5013116;28;20406;-51
2022/07/15 01:11:18;;;;;;;5.27;2.80;;;;;;;;;;5012209;28;20421;-51
2022/07/15 01:13:45;;;;;;;6.07;2.67;;;;;;;;;;5013168;28;20465;-50
2022/07/15 01:16:11;;;;;;;3.97;3.57;;;;;;;;;;5012756;28;20867;-51
2022/07/15 01:18:38;;;;;;;3.63;2.33;;;;;;;;;;5013154;28;20473;-51
2022/07/15 01:21:04;;;;;;;4.70;2.10;;;;;;;;;;5010772;28;20412;-51
2022/07/15 01:23:30;;;;;;;6.73;3.00;;;;;;;;;;5012783;28;20428;-50
2022/07/15 01:25:56;;;;;;;2.80;2.53;;;;;;;;;;5012783;28;20411;-51
2022/07/15 01:28:22;;;;;;;5.43;3.13;;;;;;;;;;5012986;28;20885;-52
2022/07/15 01:30:49;;;;;;;5.10;2.90;;;;;;;;;;5012781;28;20461;-48
2022/07/15 01:33:15;;;;;;;6.13;2.50;;;;;;;;;;5012580;28;20393;-48
2022/07/15 01:35:41;;;;;;;4.20;3.13;;;;;;;;;;5012742;28;20416;-50
2022/07/15 01:38:08;;;;;;;4.77;2.40;;;;;;;;;;5012827;28;20413;-50
2022/07/15 01:40:34;;;;;;;6.60;2.90;;;;;;;;;;5012247;28;20418;-49
2022/07/15 01:43:00;;;;;;;6.17;3.03;;;;;;;;;;5012768;28;20407;-49
2022/07/15 01:45:26;;;;;;;5.00;2.67;;;;;;;;;;5012518;28;20790;-48
2022/07/15 01:47:52;;;;;;;3.80;2.60;;;;;;;;;;5012739;28;20415;-49
2022/07/15 01:50:19;;;;;;;9.13;3.00;;;;;;;;;;5012018;28;20487;-48
2022/07/15 01:52:45;;;;;;;6.70;2.90;;;;;;;;;;5012247;28;20423;-49
2022/07/15 01:55:11;;;;;;;5.40;2.60;;;;;;;;;;5012136;28;20403;-49
2022/07/15 01:57:37;;;;;;;3.23;2.93;;;;;;;;;;5011356;28;20409;-49
2022/07/15 02:00:04;;;;;;;3.30;2.87;;;;;;;;;;5012441;28;20411;-49
2022/07/15 02:02:30;;;;;;;6.70;2.73;;;;;;;;;;5012194;28;20423;-49
2022/07/15 02:04:56;;;;;;;3.43;2.63;;;;;;;;;;5012548;28;20461;-50
2022/07/15 02:07:22;;;;;;;11.63;3.60;;;;;;;;;;5012248;28;20414;-48
2022/07/15 02:09:48;;;;;;;3.90;2.47;;;;;;;;;;5012111;28;20437;-48
2022/07/15 02:12:14;;;;;;;5.03;3.00;;;;;;;;;;5011728;28;20425;-48
2022/07/15 02:14:40;;;;;;;9.13;2.80;;;;;;;;;;5012105;28;20402;-48
2022/07/15 02:17:07;;;;;;;12.07;3.60;;;;;;;;;;5011887;28;20423;-48
2022/07/15 02:19:33;;;;;;;4.20;2.80;;;;;;;;;;5012240;28;20406;-48
2022/07/15 02:21:59;;;;;;;5.30;2.13;;;;;;;;;;5011793;28;20805;-48
2022/07/15 02:24:25;;;;;;;5.80;2.97;;;;;;;;;;5012200;28;20762;-49
2022/07/15 02:26:51;;;;;;;11.40;3.57;;;;;;;;;;5011561;28;20430;-50
2022/07/15 02:29:18;;;;;;;2.53;2.33;;;;;;;;;;5011004;28;20957;-49
2022/07/15 02:31:44;;;;;;;2.47;2.03;;;;;;;;;;5011341;28;20405;-49
2022/07/15 02:34:10;;;;;;;3.33;2.53;;;;;;;;;;5012066;28;20374;-49
2022/07/15 02:36:36;;;;;;;3.90;1.90;;;;;;;;;;5011943;28;20415;-49
2022/07/15 02:39:03;;;;;;;2.93;2.60;;;;;;;;;;5011817;28;20917;-48
2022/07/15 02:41:29;;;;;;;2.73;2.27;;;;;;;;;;5011298;28;20397;-49
2022/07/15 02:43:55;;;;;;;8.43;2.40;;;;;;;;;;5013148;28;20781;-50
2022/07/15 02:46:21;;;;;;;3.30;2.53;;;;;;;;;;5015878;28;20518;-49
2022/07/15 02:48:47;;;;;;;4.60;3.10;;;;;;;;;;5015978;28;20919;-48
2022/07/15 02:51:14;;;;;;;5.63;2.77;;;;;;;;;;5014643;28;20939;-48
2022/07/15 02:53:40;;;;;;;7.67;2.93;;;;;;;;;;5015666;28;20758;-49
2022/07/15 02:56:06;;;;;;;6.50;2.50;;;;;;;;;;5015438;28;20411;-48
2022/07/15 02:58:33;;;;;;;5.50;3.07;;;;;;;;;;5015709;28;20488;-49
2022/07/15 03:00:59;;;;;;;4.03;2.90;;;;;;;;;;5015310;28;20378;-49
2022/07/15 03:03:28;;;;;;;6.10;2.23;;;;;;;;;;5015777;28;20902;-49
2022/07/15 03:05:54;;;;;;;6.57;2.70;;;;;;;;;;5015275;28;20407;-49
2022/07/15 03:08:20;;;;;;;2.50;2.00;;;;;;;;;;5015519;28;20556;-50
2022/07/15 03:10:46;;;;;;;5.33;2.30;;;;;;;;;;5014809;28;20455;-48
2022/07/15 03:13:12;;;;;;;2.73;2.50;;;;;;;;;;5015483;28;20414;-48
2022/07/15 03:15:38;;;;;;;5.63;2.33;;;;;;;;;;5015771;28;20422;-50
2022/07/15 03:18:04;;;;;;;4.17;3.23;;;;;;;;;;5015244;28;20417;-48
2022/07/15 03:20:30;;;;;;;8.13;3.00;;;;;;;;;;5014581;28;20395;-49
2022/07/15 03:22:56;;;;;;;4.33;2.93;;;;;;;;;;5014930;28;20406;-48
2022/07/15 03:25:22;;;;;;;4.50;2.67;;;;;;;;;;5015264;28;20410;-49
2022/07/15 03:27:48;;;;;;;3.50;2.83;;;;;;;;;;5014632;28;20437;-49
2022/07/15 03:30:14;;;;;;;6.93;3.30;;;;;;;;;;5014952;28;20450;-48
2022/07/15 03:32:40;;;;;;;9.47;4.00;;;;;;;;;;5014880;28;20988;-49
2022/07/15 03:35:06;;;;;;;4.33;3.03;;;;;;;;;;5014781;28;20510;-50
2022/07/15 03:37:32;;;;;;;8.23;3.70;;;;;;;;;;5014671;28;20505;-49
2022/07/15 03:39:58;;;;;;;4.43;2.80;;;;;;;;;;5014969;28;20768;-48
2022/07/15 03:42:24;;;;;;;4.63;2.80;;;;;;;;;;5014506;28;20422;-48
2022/07/15 03:44:50;;;;;;;5.60;3.37;;;;;;;;;;5014946;28;20413;-48
2022/07/15 03:47:16;;;;;;;5.60;3.07;;;;;;;;;;5014847;28;20444;-48
2022/07/15 03:49:42;;;;;;;4.40;3.40;;;;;;;;;;5014413;28;20816;-48
2022/07/15 03:52:08;;;;;;;5.33;3.23;;;;;;;;;;5014279;28;20400;-48
2022/07/15 03:54:34;;;;;;;5.87;3.30;;;;;;;;;;5014818;28;20485;-49
2022/07/15 03:57:00;;;;;;;10.13;3.87;;;;;;;;;;5014189;28;20448;-48
2022/07/15 03:59:26;;;;;;;6.10;2.70;;;;;;;;;;5014625;28;20436;-49
2022/07/15 04:01:53;;;;;;;6.47;3.40;;;;;;;;;;5014128;28;20428;-49
2022/07/15 04:04:19;;;;;;;3.90;2.90;;;;;;;;;;5014282;28;20425;-48
2022/07/15 04:06:45;;;;;;;5.87;3.23;;;;;;;;;;5014477;28;20931;-49
2022/07/15 04:09:12;;;;;;;5.73;3.37;;;;;;;;;;5014436;28;20448;-49
2022/07/15 04:11:42;;;;;;;4.60;2.87;;;;;;;;;;5013815;28;20944;-49
2022/07/15 04:14:09;;;;;;;4.93;4.23;;;;;;;;;;5014468;28;20796;-48
2022/07/15 04:16:35;;;;;;;9.30;3.87;;;;;;;;;;5013979;28;20419;-49
2022/07/15 04:19:01;;;;;;;3.50;3.20;;;;;;;;;;5013745;28;20813;-49
2022/07/15 04:21:27;;;;;;;5.20;3.47;;;;;;;;;;5013895;28;20435;-48
2022/07/15 04:23:53;;;;;;;3.93;2.77;;;;;;;;;;5014214;28;20384;-50
2022/07/15 04:26:19;;;;;;;4.40;3.40;;;;;;;;;;5013978;28;20461;-49
2022/07/15 04:28:45;;;;;;;5.80;3.40;;;;;;;;;;5014005;28;20403;-48
2022/07/15 04:31:11;;;;;;;3.87;3.33;;;;;;;;;;5013809;28;20423;-48
2022/07/15 04:33:37;;;;;;;4.80;3.27;;;;;;;;;;5013497;28;20396;-50
2022/07/15 04:36:03;;;;;;;5.17;3.50;;;;;;;;;;5013945;28;20826;-48
2022/07/15 04:38:29;;;;;;;6.10;2.97;;;;;;;;;;5013583;28;20427;-49
2022/07/15 04:40:55;;;;;;;4.20;2.53;;;;;;;;;;5013788;28;20923;-50
2022/07/15 04:43:21;;;;;;;6.90;3.53;;;;;;;;;;5013615;28;20425;-48
2022/07/15 04:45:47;;;;;;;6.00;3.13;;;;;;;;;;5013764;28;20419;-49
2022/07/15 04:50:58;;;;;;;5.20;3.10;;;;;;;;;;5013443;28;20462;-48
2022/07/15 04:53:24;;;;;;;7.70;3.33;;;;;;;;;;5013371;28;20972;-49
2022/07/15 04:55:49;;;;;;;3.50;2.90;;;;;;;;;;5013663;28;20398;-48
2022/07/15 04:58:15;;;;;;;14.03;3.20;;;;;;;;;;5013272;28;20433;-49
2022/07/15 05:00:45;;;;;;;7.50;3.60;;;;;;;;;;5012864;28;20396;-50
2022/07/15 05:03:11;;;;;;;9.27;2.97;;;;;;;;;;5013176;28;20786;-49
2022/07/15 05:05:37;;;;;;;6.80;3.20;;;;;;;;;;5013446;28;20416;-48
2022/07/15 05:08:03;;;;;;;6.77;3.33;;;;;;;;;;5012461;28;20441;-49
2022/07/15 05:10:30;;;;;;;7.00;3.43;;;;;;;;;;5013062;28;20454;-48
2022/07/15 05:12:57;;;;;;;6.27;3.60;;;;;;;;;;5013001;28;20447;-49
2022/07/15 05:15:23;;;;;;;9.07;2.80;;;;;;;;;;5013302;28;20409;-49
2022/07/15 05:17:49;;;;;;;5.20;3.90;;;;;;;;;;5012611;28;20447;-49
2022/07/15 05:20:15;;;;;;;5.13;2.93;;;;;;;;;;5013178;28;20422;-48
2022/07/15 05:22:41;;;;;;;2.93;2.60;;;;;;;;;;5012805;28;20472;-47
2022/07/15 05:25:07;;;;;;;6.63;2.73;;;;;;;;;;5013025;28;20948;-50
2022/07/15 05:27:33;;;;;;;4.47;3.00;;;;;;;;;;5012809;28;20427;-49
2022/07/15 05:29:59;;;;;;;5.90;2.70;;;;;;;;;;5012791;28;20588;-49
2022/07/15 05:32:25;;;;;;;11.57;3.20;;;;;;;;;;5012522;28;20436;-49
2022/07/15 05:34:51;;;;;;;8.23;2.33;;;;;;;;;;5012593;28;20484;-50
2022/07/15 05:37:17;;;;;;;3.40;1.90;;;;;;;;;;5012155;28;21068;-50
2022/07/15 05:39:53;;;;;;;6.30;2.40;;;;;;;;;;5012690;28;20409;-49
2022/07/15 05:42:20;;;;;;;2.97;2.30;;;;;;;;;;5012367;28;20514;-49
2022/07/15 05:44:46;;;;;;;3.73;2.20;;;;;;;;;;5012825;28;20381;-48
2022/07/15 05:47:12;;;;;;;5.13;2.50;;;;;;;;;;5012427;28;20894;-49
2022/07/15 05:49:38;;;;;;;10.50;2.93;;;;;;;;;;5012616;28;20481;-49
2022/07/15 05:52:04;;;;;;;6.60;2.00;;;;;;;;;;5011907;28;20790;-49
2022/07/15 05:54:30;;;;;;;6.50;2.80;;;;;;;;;;4992692;28;20387;-50
2022/07/15 05:56:56;;;;;;;3.83;2.47;;;;;;;;;;4992820;28;20387;-49
2022/07/15 05:59:22;;;;;;;3.50;1.87;;;;;;;;;;5012004;28;20940;-48
2022/07/15 06:01:48;;;;;;;6.77;2.30;;;;;;;;;;5012339;28;20456;-49
2022/07/15 06:04:14;;;;;;;8.43;3.03;;;;;;;;;;5012641;28;20374;-49
2022/07/15 06:06:40;;;;;;;3.13;1.93;;;;;;;;;;5012237;28;20398;-50
2022/07/15 06:09:06;;;;;;;3.53;1.90;;;;;;;;;;5011708;28;20940;-50
2022/07/15 06:11:33;;;;;;;2.97;2.23;;;;;;;;;;5011613;28;20419;-49
2022/07/15 06:14:00;;;;;;;6.77;1.77;;;;;;;;;;5012256;28;20406;-49
2022/07/15 06:16:26;;;;;;;7.73;2.40;;;;;;;;;;5011465;28;20511;-49
2022/07/15 06:18:52;;;;;;;8.43;1.90;;;;;;;;;;5011037;28;20425;-49
2022/07/15 06:21:18;;;;;;;6.43;2.03;;;;;;;;;;5011693;28;20400;-50
2022/07/15 06:23:44;;;;;;;7.27;2.23;;;;;;;;;;5011023;28;20403;-50
2022/07/15 06:26:10;;;;;;;5.50;1.80;;;;;;;;;;5011316;28;20396;-49
2022/07/15 06:28:35;;;;;;;7.70;2.43;;;;;;;;;;5011072;28;20411;-49
2022/07/15 06:31:01;;;;;;;3.00;1.70;;;;;;;;;;5011073;28;20430;-49
2022/07/15 06:33:28;;;;;;;2.40;1.70;;;;;;;;;;5011907;28;20425;-49
2022/07/15 06:35:54;;;;;;;7.57;2.10;;;;;;;;;;5011889;28;20797;-48
2022/07/15 06:38:20;;;;;;;3.10;1.53;;;;;;;;;;5011281;28;20596;-48
2022/07/15 06:40:46;;;;;;;9.40;2.20;;;;;;;;;;5010826;28;20998;-49
2022/07/15 06:43:12;;;;;;;3.30;2.00;;;;;;;;;;5011651;28;21081;-50
2022/07/15 06:45:38;;;;;;;4.00;2.30;;;;;;;;;;5011990;28;20488;-49
2022/07/15 06:48:05;;;;;;;2.10;1.57;;;;;;;;;;5011502;28;20450;-50
2022/07/15 06:50:30;;;;;;;2.80;1.97;;;;;;;;;;5011432;28;20434;-48
2022/07/15 06:52:57;;;;;;;3.33;1.70;;;;;;;;;;5011394;28;20569;-49
2022/07/15 06:55:23;;;;;;;9.50;2.07;;;;;;;;;;5012360;28;20757;-49
2022/07/15 06:57:49;;;;;;;8.50;1.60;;;;;;;;;;5011228;28;20432;-50
2022/07/15 07:00:15;;;;;;;5.37;2.70;;;;;;;;;;5011117;28;20432;-49
2022/07/15 07:02:41;;;;;;;3.90;1.77;;;;;;;;;;5011639;28;20393;-50
2022/07/15 07:05:08;;;;;;;2.10;1.73;;;;;;;;;;5010540;28;20433;-49
2022/07/15 07:07:34;;;;;;;7.30;2.50;;;;;;;;;;5011371;28;20445;-48
2022/07/15 07:10:00;;;;;;;5.23;2.00;;;;;;;;;;5011033;28;20454;-48
2022/07/15 07:12:26;;;;;;;9.73;1.73;;;;;;;;;;5011327;28;20474;-49
2022/07/15 07:14:53;;;;;;;4.90;1.47;;;;;;;;;;5011435;28;20389;-49
2022/07/15 07:17:19;;;;;;;7.23;1.37;;;;;;;;;;5011373;28;20413;-48
2022/07/15 07:19:45;;;;;;;3.87;1.50;;;;;;;;;;5010961;28;20782;-50
2022/07/15 07:22:11;;;;;;;4.17;1.43;;;;;;;;;;5011112;28;20457;-50
2022/07/15 07:24:37;;;;;;;4.60;2.00;;;;;;;;;;5011350;28;20434;-49
2022/07/15 07:27:04;;;;;;;4.20;1.30;;;;;;;;;;5011705;28;20399;-49
2022/07/15 07:29:30;;;;;;;5.53;1.87;;;;;;;;;;5011245;28;20451;-49
2022/07/15 07:31:56;;;;;;;1.47;1.10;;;;;;;;;;5007523;28;20513;-49
2022/07/15 07:34:22;;;;;;;6.37;1.40;;;;;;;;;;5014643;28;20424;-49
2022/07/15 07:36:48;;;;;;;4.50;1.97;;;;;;;;;;5015905;28;20405;-51
2022/07/15 07:39:14;;;;;;;2.40;1.50;;;;;;;;;;5014367;28;20457;-51
2022/07/15 07:41:40;;;;;;;7.00;1.67;;;;;;;;;;5014772;28;20425;-52
2022/07/15 07:44:07;;;;;;;3.03;1.40;;;;;;;;;;5014540;28;20422;-52
2022/07/15 07:46:33;;;;;;;4.43;1.70;;;;;;;;;;5014479;28;20433;-52
2022/07/15 07:48:59;;;;;;;5.50;2.07;;;;;;;;;;5013866;28;20439;-50
2022/07/15 07:51:25;;;;;;;4.10;1.70;;;;;;;;;;5013721;28;20469;-52
2022/07/15 07:53:51;;;;;;;2.73;1.40;;;;;;;;;;5014760;28;20415;-50
2022/07/15 07:56:17;;;;;;;2.80;1.50;;;;;;;;;;5014430;28;20411;-50
2022/07/15 07:58:43;;;;;;;4.80;1.67;;;;;;;;;;5014175;28;20451;-49
2022/07/15 08:01:09;;;;;;;2.70;1.30;;;;;;;;;;5013545;28;20423;-50
2022/07/15 08:03:35;;;;;;;4.57;1.80;;;;;;;;;;5014229;28;20430;-52
2022/07/15 08:06:01;;;;;;;3.90;1.83;;;;;;;;;;5014366;28;20431;-51
2022/07/15 08:08:27;;;;;;;3.70;1.77;;;;;;;;;;5014076;28;20454;-51
2022/07/15 08:10:54;;;;;;;4.80;2.10;;;;;;;;;;5013825;28;20539;-52
2022/07/15 08:13:21;;;;;;;4.47;1.60;;;;;;;;;;5013803;28;20788;-50
2022/07/15 08:15:47;;;;;;;2.90;1.60;;;;;;;;;;4999156;28;20465;-50
2022/07/15 08:18:14;;;;;;;2.40;1.87;;;;;;;;;;5014203;28;20437;-51
2022/07/15 08:20:40;;;;;;;2.70;1.37;;;;;;;;;;5013021;28;20918;-50
2022/07/15 08:23:06;;;;;;;2.47;1.37;;;;;;;;;;5013854;28;20937;-50
2022/07/15 08:25:33;;;;;;;2.53;1.70;;;;;;;;;;5013774;28;20430;-52
2022/07/15 08:28:00;;;;;;;2.30;1.60;;;;;;;;;;5013982;28;20445;-52
2022/07/15 08:30:30;;;;;;;9.70;1.90;;;;;;;;;;5006362;28;20963;-51
2022/07/15 08:32:56;;;;;;;3.00;1.93;;;;;;;;;;4995987;28;20416;-50
2022/07/15 08:35:22;;;;;;;2.70;1.50;;;;;;;;;;5009509;28;20454;-52
2022/07/15 08:37:48;;;;;;;5.00;1.70;;;;;;;;;;5013338;28;21207;-51
2022/07/15 08:40:15;;;;;;;2.93;1.73;;;;;;;;;;5013424;28;20511;-51
2022/07/15 08:42:43;;;;;;;3.70;2.20;;;;;;;;;;5012621;28;20490;-52
2022/07/15 08:45:09;;;;;;;4.40;2.50;;;;;;;;;;4994037;28;20422;-51
2022/07/15 08:47:37;;;;;;;3.43;1.93;;;;;;;;;;4993952;28;20429;-51
2022/07/15 08:50:04;;;;;;;3.30;1.50;;;;;;;;;;5011710;28;20504;-52
2022/07/15 08:52:33;;;;;;;4.13;1.80;;;;;;;;;;5013829;28;20488;-51
2022/07/15 08:54:59;;;;;;;2.90;1.90;;;;;;;;;;5013068;28;20425;-52
2022/07/15 08:57:25;;;;;;;3.70;1.60;;;;;;;;;;5013346;28;21008;-50
2022/07/15 08:59:54;;;;;;;9.97;1.73;;;;;;;;;;5013280;28;20422;-50
2022/07/15 09:02:20;;;;;;;2.77;1.30;;;;;;;;;;5013142;28;20407;-52
2022/07/15 09:05:05;;;;;;;2.20;1.20;;;;;;;;;;5011714;28;20423;-51
2022/07/15 09:07:31;;;;;;;2.60;0.90;;;;;;;;;;5013137;28;20423;-52
2022/07/15 09:09:57;;;;;;;3.07;1.33;;;;;;;;;;5012801;28;20502;-51
2022/07/15 09:12:23;;;;;;;3.80;1.50;;;;;;;;;;5013045;28;20445;-52
2022/07/15 09:14:49;;;;;;;2.43;1.10;;;;;;;;;;5012856;28;20411;-52
2022/07/15 09:17:15;;;;;;;1.60;1.10;;;;;;;;;;5013164;28;20628;-52
2022/07/15 09:19:57;;;;;;;3.90;2.00;;;;;;;;;;5012289;28;20986;-51
2022/07/15 09:22:24;;;;;;;1.80;1.20;;;;;;;;;;5012921;28;20183;-51
2022/07/15 09:25:05;;;;;;;2.10;1.20;;;;;;;;;;5012909;28;20541;-51
2022/07/15 09:27:39;;;;;;;4.53;2.10;;;;;;;;;;5010669;28;20956;-50
2022/07/15 09:36:03;;;;;;;2.63;1.23;;;;;;;;;;5007537;28;20981;-50
2022/07/15 09:38:33;;;;;;;4.63;2.03;;;;;;;;;;5007493;28;20446;-51
2022/07/15 09:41:00;;;;;;;1.50;1.20;;;;;;;;;;5005176;28;20505;-51
2022/07/15 09:43:26;;;;;;;3.63;1.47;;;;;;;;;;5007581;28;20522;-52
2022/07/15 09:46:01;;;;;;;2.43;1.20;;;;;;;;;;5004142;28;20912;-52
2022/07/15 09:48:28;;;;;;;2.33;1.33;;;;;;;;;;5004702;28;20437;-52
2022/07/15 09:51:01;;;;;;;4.10;1.40;;;;;;;;;;5003699;28;20461;-51
2022/07/15 09:53:27;;;;;;;3.03;1.13;;;;;;;;;;5004659;28;20493;-52
2022/07/15 09:55:53;;;;;;;3.93;1.30;;;;;;;;;;5004114;28;20404;-53
2022/07/15 09:58:20;;;;;;;1.63;1.30;;;;;;;;;;5000490;28;20447;-51
2022/07/15 10:00:46;;;;;;;3.27;1.00;;;;;;;;;;5009874;28;20431;-52
2022/07/15 10:03:12;;;;;;;1.63;1.20;;;;;;;;;;5009743;28;20407;-51
2022/07/15 10:05:39;;;;;;;1.50;1.10;;;;;;;;;;5003650;28;20923;-50
2022/07/15 10:08:06;;;;;;;2.50;1.10;;;;;;;;;;5009827;28;20443;-52
2022/07/15 10:10:33;;;;;;;3.77;1.30;;;;;;;;;;5011843;28;20473;-51
2022/07/15 10:12:59;;;;;;;4.47;1.27;;;;;;;;;;5007503;28;20421;-50
2022/07/15 10:15:42;;;;;;;6.07;2.10;;;;;;;;;;5007708;28;20429;-51
2022/07/15 10:18:09;;;;;;;2.40;1.13;;;;;;;;;;5009501;28;20439;-51
2022/07/15 10:20:54;;;;;;;3.97;1.30;;;;;;;;;;5002829;28;20700;-53
2022/07/15 10:23:34;;;;;;;3.83;1.10;;;;;;;;;;5007162;28;20861;-49
2022/07/15 10:26:15;;;;;;;2.83;1.43;;;;;;;;;;5012088;28;20415;-50
2022/07/15 10:28:54;;;;;;;3.43;1.30;;;;;;;;;;5000537;28;20433;-50
2022/07/15 10:31:25;;;;;;;2.90;1.50;;;;;;;;;;5001223;28;20490;-49
2022/07/15 10:34:06;;;;;;;4.37;1.60;;;;;;;;;;5005038;28;20455;-49
2022/07/15 10:36:48;;;;;;;2.67;1.33;;;;;;;;;;5003149;28;20570;-48
2022/07/15 10:39:15;;;;;;;2.50;1.33;;;;;;;;;;5002486;28;20442;-49
2022/07/15 10:41:53;;;;;;;2.33;1.40;;;;;;;;;;5005348;28;20795;-48
2022/07/15 10:44:19;;;;;;;3.93;2.10;;;;;;;;;;5002485;28;20482;-48
2022/07/15 10:46:45;;;;;;;7.07;2.07;;;;;;;;;;5007675;28;20419;-48
2022/07/15 10:49:11;;;;;;;1.80;1.20;;;;;;;;;;5002691;28;20425;-49
2022/07/15 10:51:37;;;;;;;1.87;1.00;;;;;;;;;;5002055;28;20433;-49
2022/07/15 10:54:06;;;;;;;4.77;1.60;;;;;;;;;;5000587;28;20736;-49
2022/07/15 10:56:35;;;;;;;1.80;1.23;;;;;;;;;;5007147;28;20503;-49
2022/07/15 10:59:14;;;;;;;3.10;1.10;;;;;;;;;;5002735;28;20556;-50
2022/07/15 11:01:41;;;;;;;4.40;1.87;;;;;;;;;;5003592;28;20792;-49
2022/07/15 11:04:17;;;;;;;1.60;1.20;;;;;;;;;;5001919;28;20404;-49
2022/07/15 11:07:02;;;;;;;4.50;1.70;;;;;;;;;;5007903;28;20423;-50
2022/07/15 11:09:46;;;;;;;2.27;1.40;;;;;;;;;;5006087;28;20458;-49
2022/07/15 11:12:16;;;;;;;1.23;1.13;;;;;;;;;;5007933;28;20447;-49
2022/07/15 11:14:43;;;;;;;1.50;1.23;;;;;;;;;;5005253;28;20396;-49
2022/07/15 11:17:11;;;;;;;1.67;1.53;;;;;;;;;;5010976;28;20422;-49
2022/07/15 11:19:37;;;;;;;1.43;1.10;;;;;;;;;;5006684;28;20423;-49
2022/07/15 11:22:03;;;;;;;2.70;1.30;;;;;;;;;;5014379;28;20830;-50
2022/07/15 11:24:29;;;;;;;2.20;1.30;;;;;;;;;;4999041;28;20486;-51
2022/07/15 11:26:55;;;;;;;2.77;1.20;;;;;;;;;;5008160;28;20426;-49
2022/07/15 11:29:21;;;;;;;2.30;1.10;;;;;;;;;;5013411;28;20463;-49
2022/07/15 11:31:49;;;;;;;1.70;1.10;;;;;;;;;;5006521;28;20412;-50
2022/07/15 11:34:14;;;;;;;2.60;1.23;;;;;;;;;;5014789;28;20421;-50
2022/07/15 11:36:40;;;;;;;1.83;1.47;;;;;;;;;;5012260;28;20424;-50
2022/07/15 11:39:06;;;;;;;3.70;1.47;;;;;;;;;;5014852;28;21009;-49
2022/07/15 11:44:29;;;;;;;3.53;1.60;;;;;;;;;;5015018;28;20395;-49
2022/07/15 11:46:56;;;;;;;1.83;1.33;;;;;;;;;;5014580;28;20454;-49
2022/07/15 11:49:28;;;;;;;2.80;1.30;;;;;;;;;;5014089;28;20456;-50
2022/07/15 11:51:54;;;;;;;1.90;1.07;;;;;;;;;;5013690;28;20421;-50
2022/07/15 11:54:20;;;;;;;1.90;1.20;;;;;;;;;;5012482;28;20416;-48
2022/07/15 11:56:53;;;;;;;2.97;1.27;;;;;;;;;;5013969;28;20401;-49
2022/07/15 11:59:19;;;;;;;3.83;1.17;;;;;;;;;;5012651;28;20427;-48
2022/07/15 12:01:45;;;;;;;8.77;1.80;;;;;;;;;;5014245;28;20768;-49
2022/07/15 12:04:12;;;;;;;2.80;1.30;;;;;;;;;;5014463;28;20403;-48
2022/07/15 12:06:38;;;;;;;3.23;1.37;;;;;;;;;;5013857;28;20442;-50
2022/07/15 12:09:08;;;;;;;4.67;1.40;;;;;;;;;;5013889;28;20904;-50
2022/07/15 12:11:37;;;;;;;3.23;1.30;;;;;;;;;;5014215;28;20744;-50
2022/07/15 12:14:10;;;;;;;5.77;1.40;;;;;;;;;;5013831;28;20829;-50
2022/07/15 12:16:36;;;;;;;2.63;1.20;;;;;;;;;;5014167;28;20485;-50
2022/07/15 12:19:16;;;;;;;1.30;0.90;;;;;;;;;;5013243;28;20526;-49
2022/07/15 12:21:43;;;;;;;1.43;1.13;;;;;;;;;;5014027;28;20395;-49
2022/07/15 12:24:11;;;;;;;1.57;1.03;;;;;;;;;;5013755;28;20426;-51
2022/07/15 12:26:39;;;;;;;1.10;0.90;;;;;;;;;;5013820;28;20391;-49
2022/07/15 12:29:06;;;;;;;3.80;1.73;;;;;;;;;;5013454;28;20440;-50
2022/07/15 12:31:33;;;;;;;1.67;0.90;;;;;;;;;;5013837;28;20399;-49
2022/07/15 12:33:59;;;;;;;1.30;1.07;;;;;;;;;;5013856;28;20411;-50
2022/07/15 12:36:27;;;;;;;2.70;1.20;;;;;;;;;;5013989;28;20805;-49
2022/07/15 12:39:09;;;;;;;3.53;1.00;;;;;;;;;;5013516;28;20465;-50
2022/07/15 12:41:36;;;;;;;0.90;0.80;;;;;;;;;;5013923;28;20403;-48
2022/07/15 12:44:03;;;;;;;1.63;1.00;;;;;;;;;;5013715;28;20989;-49
2022/07/15 12:46:50;;;;;;;3.43;1.03;;;;;;;;;;5013499;28;20457;-49
2022/07/15 12:49:35;;;;;;;1.17;1.00;;;;;;;;;;5013156;28;21019;-49
2022/07/15 12:52:11;;;;;;;1.73;1.00;;;;;;;;;;5013787;28;20513;-50
2022/07/15 12:54:37;;;;;;;3.27;0.90;;;;;;;;;;5013641;28;20414;-50
2022/07/15 12:57:03;;;;;;;3.73;1.10;;;;;;;;;;5013530;28;20431;-50
2022/07/15 12:59:29;;;;;;;1.70;1.10;;;;;;;;;;5013223;28;20419;-50
2022/07/15 13:02:05;;;;;;;1.57;0.87;;;;;;;;;;5013287;28;20411;-49
2022/07/15 13:04:31;;;;;;;0.90;0.70;;;;;;;;;;5012026;28;20406;-49
2022/07/15 13:06:57;;;;;;;3.37;0.90;;;;;;;;;;5013517;28;20418;-50
2022/07/15 13:09:23;;;;;;;1.57;1.03;;;;;;;;;;5013025;28;20422;-49
2022/07/15 13:11:59;;;;;;;2.50;0.90;;;;;;;;;;5012728;28;20423;-51
2022/07/15 13:14:25;;;;;;;4.60;1.10;;;;;;;;;;5013124;28;20403;-51
2022/07/15 13:16:51;;;;;;;1.20;0.90;;;;;;;;;;5011662;28;20415;-50
2022/07/15 13:19:17;;;;;;;1.60;1.13;;;;;;;;;;5013054;28;20527;-50
2022/07/15 13:21:43;;;;;;;1.50;1.10;;;;;;;;;;5011693;28;20464;-49
2022/07/15 13:24:09;;;;;;;2.33;1.00;;;;;;;;;;5013151;28;20414;-49
2022/07/15 13:26:35;;;;;;;3.13;1.10;;;;;;;;;;5012785;28;20495;-49
2022/07/15 13:29:01;;;;;;;2.10;1.20;;;;;;;;;;5012264;28;20807;-49
2022/07/15 13:31:27;;;;;;;1.57;1.00;;;;;;;;;;5012619;28;20461;-50
2022/07/15 13:33:53;;;;;;;1.20;0.80;;;;;;;;;;5013020;28;20457;-50
2022/07/15 13:36:19;;;;;;;1.30;1.10;;;;;;;;;;5013271;28;20514;-49
2022/07/15 13:38:45;;;;;;;2.87;1.00;;;;;;;;;;5012658;28;20585;-48
2022/07/15 13:41:11;;;;;;;1.30;0.90;;;;;;;;;;5010852;28;20498;-49
2022/07/15 13:43:37;;;;;;;1.57;1.10;;;;;;;;;;5012439;28;20414;-49
2022/07/15 13:46:04;;;;;;;1.20;1.10;;;;;;;;;;5012508;28;20875;-50
2022/07/15 13:48:30;;;;;;;1.00;0.83;;;;;;;;;;5012416;28;20522;-50
2022/07/15 13:53:41;;;;;;;2.00;0.77;;;;;;;;;;4992987;28;20395;-51
2022/07/15 13:56:07;;;;;;;2.80;1.30;;;;;;;;;;4992876;28;20396;-49
2022/07/15 13:58:33;;;;;;;1.20;0.80;;;;;;;;;;5012092;28;20506;-48
2022/07/15 14:00:59;;;;;;;2.47;1.23;;;;;;;;;;5012247;28;20851;-48
2022/07/15 14:03:25;;;;;;;4.50;1.00;;;;;;;;;;5012013;28;20418;-49
2022/07/15 14:05:51;;;;;;;1.00;0.80;;;;;;;;;;5012501;28;20420;-48
2022/07/15 14:08:17;;;;;;;1.00;0.90;;;;;;;;;;5012183;28;20427;-49
2022/07/15 14:10:43;;;;;;;1.30;1.20;;;;;;;;;;5011478;28;20543;-48
2022/07/15 14:13:09;;;;;;;2.00;0.83;;;;;;;;;;5012218;28;20411;-49
2022/07/15 14:15:35;;;;;;;1.23;0.80;;;;;;;;;;5011414;28;20415;-50
2022/07/15 14:18:00;;;;;;;1.43;1.00;;;;;;;;;;5011826;28;20508;-49
2022/07/15 14:20:26;;;;;;;3.83;1.73;;;;;;;;;;5011730;28;20419;-49
2022/07/15 14:22:52;;;;;;;1.20;0.70;;;;;;;;;;5012014;28;20911;-49
2022/07/15 14:25:18;;;;;;;1.50;1.00;;;;;;;;;;5011740;28;20423;-49
2022/07/15 14:27:44;;;;;;;0.80;0.80;;;;;;;;;;5011807;28;20422;-48
2022/07/15 14:30:12;;;;;;;1.10;0.83;;;;;;;;;;5011551;28;20989;-50
2022/07/15 14:32:38;;;;;;;1.80;1.03;;;;;;;;;;5012210;28;20488;-49
2022/07/15 14:35:05;;;;;;;1.20;1.10;;;;;;;;;;5011908;28;20407;-49
2022/07/15 14:37:31;;;;;;;4.83;1.10;;;;;;;;;;5011830;28;20431;-49
2022/07/15 14:39:57;;;;;;;0.90;0.80;;;;;;;;;;5010609;28;20449;-48
2022/07/15 14:42:23;;;;;;;1.87;0.93;;;;;;;;;;5011744;28;20399;-51
2022/07/15 14:44:49;;;;;;;1.17;0.90;;;;;;;;;;5009857;28;20419;-49
2022/07/15 14:47:15;;;;;;;2.53;1.00;;;;;;;;;;5007897;28;20415;-49
2022/07/15 14:49:41;;;;;;;1.40;0.80;;;;;;;;;;5011389;28;20463;-49
2022/07/15 14:52:07;;;;;;;1.83;0.90;;;;;;;;;;5011899;28;20490;-48
2022/07/15 14:54:33;;;;;;;1.13;0.93;;;;;;;;;;5011764;28;20422;-48
2022/07/15 14:56:59;;;;;;;2.07;1.00;;;;;;;;;;5011815;28;20411;-47